Terminal Aerodrome Forecast
Issued by NWS Wakefield, VA

Home | Current Version | Previous Version | Text Only | Print | Product List | Glossary On
Versions: 1 2 3 4 5 6 7 8 9 10 11 12 13 14 15 16 17 18 19 20 21 22 23 24 25 26 27
000
FTUS41 KAKQ 220116 AAA
TAFECG
TAF AMD
KECG 220116Z 2201/2224 VRB03KT P6SM -RA BKN070 OVC100
      TEMPO 2201/2203 4SM -RA BR BKN015
     FM220300 10005KT 1 1/2SM -SHRA BR BKN005 OVC012
     FM220600 17007KT 1SM BR OVC003 WS020/22035KT
     FM220900 24005KT 1SM BR OVC003
     FM221400 22004KT 3SM BR OVC006
     FM221600 21005KT P6SM OVC008
     FM222100 19005KT 2SM -SHRA OVC006=

USA.gov is the U.S. government's official web portal to all federal, state and local government web resources and services.